sensor_id;sensor_type;location;lat;lon;timestamp;P1;durP1;ratioP1;P2;durP2;ratioP2
72085;SDS011;64750;52.134;5.424;2023-04-28T00:02:00;4.03;;;3.67;;
72085;SDS011;64750;52.134;5.424;2023-04-28T00:04:27;3.63;;;3.33;;
72085;SDS011;64750;52.134;5.424;2023-04-28T00:06:54;4.68;;;3.35;;
72085;SDS011;64750;52.134;5.424;2023-04-28T00:09:20;5.97;;;3.33;;
72085;SDS011;64750;52.134;5.424;2023-04-28T00:11:47;3.40;;;3.10;;
72085;SDS011;64750;52.134;5.424;2023-04-28T00:14:13;3.75;;;3.33;;
72085;SDS011;64750;52.134;5.424;2023-04-28T00:16:41;3.93;;;3.63;;
72085;SDS011;64750;52.134;5.424;2023-04-28T00:19:08;3.67;;;3.38;;
72085;SDS011;64750;52.134;5.424;2023-04-28T00:21:35;3.85;;;3.58;;
72085;SDS011;64750;52.134;5.424;2023-04-28T00:24:01;3.63;;;3.30;;
72085;SDS011;64750;52.134;5.424;2023-04-28T00:26:28;5.40;;;3.28;;
72085;SDS011;64750;52.134;5.424;2023-04-28T00:28:54;3.33;;;3.03;;
72085;SDS011;64750;52.134;5.424;2023-04-28T00:31:21;5.28;;;2.92;;
72085;SDS011;64750;52.134;5.424;2023-04-28T00:33:47;3.88;;;3.58;;
72085;SDS011;64750;52.134;5.424;2023-04-28T00:36:14;6.25;;;3.35;;
72085;SDS011;64750;52.134;5.424;2023-04-28T00:38:40;5.68;;;3.33;;
72085;SDS011;64750;52.134;5.424;2023-04-28T00:41:08;4.20;;;3.40;;
72085;SDS011;64750;52.134;5.424;2023-04-28T00:43:45;3.72;;;2.80;;
72085;SDS011;64750;52.134;5.424;2023-04-28T00:46:17;3.47;;;3.28;;
72085;SDS011;64750;52.134;5.424;2023-04-28T00:48:47;6.70;;;3.10;;
72085;SDS011;64750;52.134;5.424;2023-04-28T00:51:15;4.85;;;3.30;;
72085;SDS011;64750;52.134;5.424;2023-04-28T00:53:43;3.00;;;2.80;;
72085;SDS011;64750;52.134;5.424;2023-04-28T00:56:10;5.68;;;3.30;;
72085;SDS011;64750;52.134;5.424;2023-04-28T00:58:37;3.65;;;3.35;;
72085;SDS011;64750;52.134;5.424;2023-04-28T01:01:03;4.88;;;3.10;;
72085;SDS011;64750;52.134;5.424;2023-04-28T01:03:32;4.82;;;3.40;;
72085;SDS011;64750;52.134;5.424;2023-04-28T01:06:00;8.43;;;3.30;;
72085;SDS011;64750;52.134;5.424;2023-04-28T01:08:27;3.40;;;3.10;;
72085;SDS011;64750;52.134;5.424;2023-04-28T01:10:54;3.47;;;3.17;;
72085;SDS011;64750;52.134;5.424;2023-04-28T01:13:21;3.28;;;2.97;;
72085;SDS011;64750;52.134;5.424;2023-04-28T01:15:47;3.55;;;3.22;;
72085;SDS011;64750;52.134;5.424;2023-04-28T01:18:14;4.37;;;3.33;;
72085;SDS011;64750;52.134;5.424;2023-04-28T01:20:41;3.90;;;2.60;;
72085;SDS011;64750;52.134;5.424;2023-04-28T01:23:11;4.40;;;3.00;;
72085;SDS011;64750;52.134;5.424;2023-04-28T01:25:38;3.75;;;3.30;;
72085;SDS011;64750;52.134;5.424;2023-04-28T01:28:06;3.50;;;3.20;;
72085;SDS011;64750;52.134;5.424;2023-04-28T01:30:32;3.53;;;3.00;;
72085;SDS011;64750;52.134;5.424;2023-04-28T01:33:00;3.97;;;3.17;;
72085;SDS011;64750;52.134;5.424;2023-04-28T01:35:27;3.88;;;3.35;;
72085;SDS011;64750;52.134;5.424;2023-04-28T01:37:54;3.20;;;2.97;;
72085;SDS011;64750;52.134;5.424;2023-04-28T01:40:20;4.30;;;3.17;;
72085;SDS011;64750;52.134;5.424;2023-04-28T01:42:47;5.57;;;3.87;;
72085;SDS011;64750;52.134;5.424;2023-04-28T01:45:13;3.25;;;2.95;;
72085;SDS011;64750;52.134;5.424;2023-04-28T01:47:39;4.03;;;3.45;;
72085;SDS011;64750;52.134;5.424;2023-04-28T01:50:06;2.95;;;2.75;;
72085;SDS011;64750;52.134;5.424;2023-04-28T01:52:32;2.97;;;2.67;;
72085;SDS011;64750;52.134;5.424;2023-04-28T01:54:59;3.50;;;2.97;;
72085;SDS011;64750;52.134;5.424;2023-04-28T01:57:25;3.53;;;3.22;;
72085;SDS011;64750;52.134;5.424;2023-04-28T01:59:54;4.18;;;3.10;;
72085;SDS011;64750;52.134;5.424;2023-04-28T02:02:20;4.72;;;3.33;;
72085;SDS011;64750;52.134;5.424;2023-04-28T02:04:47;7.07;;;3.33;;
72085;SDS011;64750;52.134;5.424;2023-04-28T02:07:13;4.90;;;3.33;;
72085;SDS011;64750;52.134;5.424;2023-04-28T02:09:40;3.53;;;3.03;;
72085;SDS011;64750;52.134;5.424;2023-04-28T02:12:06;2.80;;;2.60;;
72085;SDS011;64750;52.134;5.424;2023-04-28T02:14:33;5.40;;;3.08;;
72085;SDS011;64750;52.134;5.424;2023-04-28T02:16:59;4.57;;;3.30;;
72085;SDS011;64750;52.134;5.424;2023-04-28T02:19:28;3.50;;;3.00;;
72085;SDS011;64750;52.134;5.424;2023-04-28T02:21:54;4.57;;;3.03;;
72085;SDS011;64750;52.134;5.424;2023-04-28T02:24:20;3.78;;;3.40;;
72085;SDS011;64750;52.134;5.424;2023-04-28T02:26:47;2.78;;;2.58;;
72085;SDS011;64750;52.134;5.424;2023-04-28T02:29:14;4.18;;;3.58;;
72085;SDS011;64750;52.134;5.424;2023-04-28T02:31:40;3.77;;;3.37;;
72085;SDS011;64750;52.134;5.424;2023-04-28T02:34:07;3.72;;;2.95;;
72085;SDS011;64750;52.134;5.424;2023-04-28T02:36:33;4.85;;;3.15;;
72085;SDS011;64750;52.134;5.424;2023-04-28T02:38:59;3.40;;;3.10;;
72085;SDS011;64750;52.134;5.424;2023-04-28T02:41:26;3.00;;;2.80;;
72085;SDS011;64750;52.134;5.424;2023-04-28T02:43:52;4.43;;;2.93;;
72085;SDS011;64750;52.134;5.424;2023-04-28T02:46:19;3.60;;;3.30;;
72085;SDS011;64750;52.134;5.424;2023-04-28T02:48:45;5.28;;;3.17;;
72085;SDS011;64750;52.134;5.424;2023-04-28T02:51:12;3.35;;;2.92;;
72085;SDS011;64750;52.134;5.424;2023-04-28T02:53:39;5.43;;;3.22;;
72085;SDS011;64750;52.134;5.424;2023-04-28T02:56:05;5.23;;;3.17;;
72085;SDS011;64750;52.134;5.424;2023-04-28T02:58:32;5.93;;;2.97;;
72085;SDS011;64750;52.134;5.424;2023-04-28T03:00:58;4.43;;;3.20;;
72085;SDS011;64750;52.134;5.424;2023-04-28T03:03:25;3.80;;;3.50;;
72085;SDS011;64750;52.134;5.424;2023-04-28T03:05:52;6.88;;;3.10;;
72085;SDS011;64750;52.134;5.424;2023-04-28T03:08:18;4.53;;;3.20;;
72085;SDS011;64750;52.134;5.424;2023-04-28T03:10:46;3.50;;;3.20;;
72085;SDS011;64750;52.134;5.424;2023-04-28T03:13:12;3.40;;;3.10;;
72085;SDS011;64750;52.134;5.424;2023-04-28T03:15:38;3.95;;;3.33;;
72085;SDS011;64750;52.134;5.424;2023-04-28T03:18:05;3.45;;;3.25;;
72085;SDS011;64750;52.134;5.424;2023-04-28T03:20:32;4.30;;;2.70;;
72085;SDS011;64750;52.134;5.424;2023-04-28T03:22:58;5.10;;;3.10;;
72085;SDS011;64750;52.134;5.424;2023-04-28T03:25:25;3.65;;;3.35;;
72085;SDS011;64750;52.134;5.424;2023-04-28T03:27:51;3.60;;;3.25;;
72085;SDS011;64750;52.134;5.424;2023-04-28T03:30:17;3.00;;;2.80;;
72085;SDS011;64750;52.134;5.424;2023-04-28T03:32:44;3.20;;;3.00;;
72085;SDS011;64750;52.134;5.424;2023-04-28T03:35:10;4.90;;;2.80;;
72085;SDS011;64750;52.134;5.424;2023-04-28T03:37:37;4.45;;;2.80;;
72085;SDS011;64750;52.134;5.424;2023-04-28T03:40:04;4.45;;;3.33;;
72085;SDS011;64750;52.134;5.424;2023-04-28T03:42:30;2.85;;;2.65;;
72085;SDS011;64750;52.134;5.424;2023-04-28T03:44:57;3.80;;;3.50;;
72085;SDS011;64750;52.134;5.424;2023-04-28T03:47:23;3.85;;;2.65;;
72085;SDS011;64750;52.134;5.424;2023-04-28T03:49:49;3.45;;;3.15;;
72085;SDS011;64750;52.134;5.424;2023-04-28T03:52:17;2.90;;;2.70;;
72085;SDS011;64750;52.134;5.424;2023-04-28T03:54:43;3.25;;;2.95;;
72085;SDS011;64750;52.134;5.424;2023-04-28T03:57:10;3.77;;;3.47;;
72085;SDS011;64750;52.134;5.424;2023-04-28T03:59:37;5.00;;;2.97;;
72085;SDS011;64750;52.134;5.424;2023-04-28T04:02:03;4.22;;;3.00;;
72085;SDS011;64750;52.134;5.424;2023-04-28T04:04:30;5.47;;;3.50;;
72085;SDS011;64750;52.134;5.424;2023-04-28T04:06:57;4.50;;;2.95;;
72085;SDS011;64750;52.134;5.424;2023-04-28T04:09:24;3.20;;;2.90;;
72085;SDS011;64750;52.134;5.424;2023-04-28T04:11:50;3.70;;;3.40;;
72085;SDS011;64750;52.134;5.424;2023-04-28T04:14:17;3.67;;;3.38;;
72085;SDS011;64750;52.134;5.424;2023-04-28T04:16:45;3.95;;;3.30;;
72085;SDS011;64750;52.134;5.424;2023-04-28T04:19:12;7.65;;;3.20;;
72085;SDS011;64750;52.134;5.424;2023-04-28T04:21:39;5.47;;;3.53;;
72085;SDS011;64750;52.134;5.424;2023-04-28T04:24:06;6.43;;;3.20;;
72085;SDS011;64750;52.134;5.424;2023-04-28T04:26:32;3.50;;;3.05;;
72085;SDS011;64750;52.134;5.424;2023-04-28T04:28:59;4.72;;;3.25;;
72085;SDS011;64750;52.134;5.424;2023-04-28T04:31:25;3.90;;;3.45;;
72085;SDS011;64750;52.134;5.424;2023-04-28T04:33:51;4.00;;;3.47;;
72085;SDS011;64750;52.134;5.424;2023-04-28T04:36:18;4.63;;;3.72;;
72085;SDS011;64750;52.134;5.424;2023-04-28T04:38:44;4.35;;;3.70;;
72085;SDS011;64750;52.134;5.424;2023-04-28T04:41:11;5.53;;;3.42;;
72085;SDS011;64750;52.134;5.424;2023-04-28T04:43:37;4.10;;;3.05;;
72085;SDS011;64750;52.134;5.424;2023-04-28T04:46:04;4.00;;;3.70;;
72085;SDS011;64750;52.134;5.424;2023-04-28T04:48:30;3.35;;;3.10;;
72085;SDS011;64750;52.134;5.424;2023-04-28T04:50:57;6.07;;;3.20;;
72085;SDS011;64750;52.134;5.424;2023-04-28T04:53:23;4.38;;;3.67;;
72085;SDS011;64750;52.134;5.424;2023-04-28T04:55:49;4.15;;;3.38;;
72085;SDS011;64750;52.134;5.424;2023-04-28T04:58:16;4.43;;;3.73;;
72085;SDS011;64750;52.134;5.424;2023-04-28T05:00:43;5.07;;;3.65;;
72085;SDS011;64750;52.134;5.424;2023-04-28T05:03:09;4.28;;;3.90;;
72085;SDS011;64750;52.134;5.424;2023-04-28T05:05:36;4.35;;;3.60;;
72085;SDS011;64750;52.134;5.424;2023-04-28T05:08:03;3.88;;;3.53;;
72085;SDS011;64750;52.134;5.424;2023-04-28T05:10:30;4.03;;;3.40;;
72085;SDS011;64750;52.134;5.424;2023-04-28T05:12:57;5.38;;;3.70;;
72085;SDS011;64750;52.134;5.424;2023-04-28T05:15:23;3.72;;;3.42;;
72085;SDS011;64750;52.134;5.424;2023-04-28T05:17:50;6.13;;;3.47;;
72085;SDS011;64750;52.134;5.424;2023-04-28T05:20:16;7.35;;;3.85;;
72085;SDS011;64750;52.134;5.424;2023-04-28T05:22:43;3.70;;;3.40;;
72085;SDS011;64750;52.134;5.424;2023-04-28T05:25:09;5.05;;;3.90;;
72085;SDS011;64750;52.134;5.424;2023-04-28T05:27:36;3.88;;;3.58;;
72085;SDS011;64750;52.134;5.424;2023-04-28T05:30:05;5.82;;;4.00;;
72085;SDS011;64750;52.134;5.424;2023-04-28T05:32:33;8.60;;;3.90;;
72085;SDS011;64750;52.134;5.424;2023-04-28T05:35:01;5.87;;;4.30;;
72085;SDS011;64750;52.134;5.424;2023-04-28T05:37:27;5.35;;;3.80;;
72085;SDS011;64750;52.134;5.424;2023-04-28T05:39:54;6.05;;;4.00;;
72085;SDS011;64750;52.134;5.424;2023-04-28T05:42:20;6.53;;;4.25;;
72085;SDS011;64750;52.134;5.424;2023-04-28T05:44:47;6.63;;;4.32;;
72085;SDS011;64750;52.134;5.424;2023-04-28T05:47:13;5.60;;;5.10;;
72085;SDS011;64750;52.134;5.424;2023-04-28T05:49:39;10.18;;;4.75;;
72085;SDS011;64750;52.134;5.424;2023-04-28T05:52:06;4.88;;;4.47;;
72085;SDS011;64750;52.134;5.424;2023-04-28T05:54:32;6.65;;;4.93;;
72085;SDS011;64750;52.134;5.424;2023-04-28T05:56:59;7.55;;;5.40;;
72085;SDS011;64750;52.134;5.424;2023-04-28T05:59:27;5.40;;;5.00;;
72085;SDS011;64750;52.134;5.424;2023-04-28T06:01:55;5.43;;;4.93;;
72085;SDS011;64750;52.134;5.424;2023-04-28T06:04:22;9.55;;;5.18;;
72085;SDS011;64750;52.134;5.424;2023-04-28T06:06:49;5.35;;;4.65;;
72085;SDS011;64750;52.134;5.424;2023-04-28T06:09:15;12.25;;;5.47;;
72085;SDS011;64750;52.134;5.424;2023-04-28T06:11:42;7.27;;;5.43;;
72085;SDS011;64750;52.134;5.424;2023-04-28T06:14:09;7.45;;;5.75;;
72085;SDS011;64750;52.134;5.424;2023-04-28T06:16:35;6.28;;;5.57;;
72085;SDS011;64750;52.134;5.424;2023-04-28T06:19:02;6.68;;;5.22;;
72085;SDS011;64750;52.134;5.424;2023-04-28T06:21:28;7.93;;;5.30;;
72085;SDS011;64750;52.134;5.424;2023-04-28T06:23:57;6.40;;;5.23;;
72085;SDS011;64750;52.134;5.424;2023-04-28T06:26:23;5.82;;;5.25;;
72085;SDS011;64750;52.134;5.424;2023-04-28T06:28:50;6.38;;;5.88;;
72085;SDS011;64750;52.134;5.424;2023-04-28T06:31:17;6.07;;;5.03;;
72085;SDS011;64750;52.134;5.424;2023-04-28T06:33:43;5.90;;;5.40;;
72085;SDS011;64750;52.134;5.424;2023-04-28T06:36:10;6.07;;;5.57;;
72085;SDS011;64750;52.134;5.424;2023-04-28T06:38:39;6.43;;;5.70;;
72085;SDS011;64750;52.134;5.424;2023-04-28T06:41:08;8.07;;;5.82;;
72085;SDS011;64750;52.134;5.424;2023-04-28T06:43:36;7.22;;;6.20;;
72085;SDS011;64750;52.134;5.424;2023-04-28T06:46:03;7.63;;;6.30;;
72085;SDS011;64750;52.134;5.424;2023-04-28T06:48:29;7.37;;;6.67;;
72085;SDS011;64750;52.134;5.424;2023-04-28T06:50:56;8.73;;;6.75;;
72085;SDS011;64750;52.134;5.424;2023-04-28T06:53:22;7.78;;;6.97;;
72085;SDS011;64750;52.134;5.424;2023-04-28T06:55:49;12.02;;;7.05;;
72085;SDS011;64750;52.134;5.424;2023-04-28T06:58:15;9.57;;;6.97;;
72085;SDS011;64750;52.134;5.424;2023-04-28T07:00:41;10.43;;;7.37;;
72085;SDS011;64750;52.134;5.424;2023-04-28T07:03:08;8.50;;;6.95;;
72085;SDS011;64750;52.134;5.424;2023-04-28T07:05:35;8.18;;;7.05;;
72085;SDS011;64750;52.134;5.424;2023-04-28T07:08:02;8.35;;;7.15;;
72085;SDS011;64750;52.134;5.424;2023-04-28T07:10:28;9.65;;;7.38;;
72085;SDS011;64750;52.134;5.424;2023-04-28T07:12:55;8.03;;;7.27;;
72085;SDS011;64750;52.134;5.424;2023-04-28T07:15:21;8.15;;;7.38;;
72085;SDS011;64750;52.134;5.424;2023-04-28T07:17:49;8.48;;;7.22;;
72085;SDS011;64750;52.134;5.424;2023-04-28T07:20:15;8.23;;;7.18;;
72085;SDS011;64750;52.134;5.424;2023-04-28T07:22:42;8.77;;;7.70;;
72085;SDS011;64750;52.134;5.424;2023-04-28T07:25:08;10.00;;;7.70;;
72085;SDS011;64750;52.134;5.424;2023-04-28T07:27:35;9.63;;;7.50;;
72085;SDS011;64750;52.134;5.424;2023-04-28T07:30:02;9.35;;;8.13;;
72085;SDS011;64750;52.134;5.424;2023-04-28T07:32:44;11.65;;;8.80;;
72085;SDS011;64750;52.134;5.424;2023-04-28T07:35:10;9.43;;;8.15;;
72085;SDS011;64750;52.134;5.424;2023-04-28T07:37:36;9.17;;;8.03;;
72085;SDS011;64750;52.134;5.424;2023-04-28T07:40:03;8.88;;;7.95;;
72085;SDS011;64750;52.134;5.424;2023-04-28T07:42:30;11.32;;;8.65;;
72085;SDS011;64750;52.134;5.424;2023-04-28T07:44:57;12.07;;;8.43;;
72085;SDS011;64750;52.134;5.424;2023-04-28T07:47:23;9.40;;;8.50;;
72085;SDS011;64750;52.134;5.424;2023-04-28T07:49:50;11.70;;;9.27;;
72085;SDS011;64750;52.134;5.424;2023-04-28T07:52:16;11.00;;;9.55;;
72085;SDS011;64750;52.134;5.424;2023-04-28T07:54:43;9.90;;;8.73;;
72085;SDS011;64750;52.134;5.424;2023-04-28T07:57:09;10.25;;;9.27;;
72085;SDS011;64750;52.134;5.424;2023-04-28T07:59:36;11.02;;;9.90;;
72085;SDS011;64750;52.134;5.424;2023-04-28T08:02:02;10.23;;;9.23;;
72085;SDS011;64750;52.134;5.424;2023-04-28T08:04:29;12.52;;;9.68;;
72085;SDS011;64750;52.134;5.424;2023-04-28T08:06:58;10.95;;;9.85;;
72085;SDS011;64750;52.134;5.424;2023-04-28T08:09:25;10.88;;;9.85;;
72085;SDS011;64750;52.134;5.424;2023-04-28T08:11:52;11.75;;;8.63;;
72085;SDS011;64750;52.134;5.424;2023-04-28T08:14:18;10.27;;;9.27;;
72085;SDS011;64750;52.134;5.424;2023-04-28T08:16:45;10.40;;;9.32;;
72085;SDS011;64750;52.134;5.424;2023-04-28T08:19:12;11.02;;;9.68;;
72085;SDS011;64750;52.134;5.424;2023-04-28T08:21:38;12.68;;;9.85;;
72085;SDS011;64750;52.134;5.424;2023-04-28T08:24:05;10.63;;;9.63;;
72085;SDS011;64750;52.134;5.424;2023-04-28T08:26:33;11.07;;;9.90;;
72085;SDS011;64750;52.134;5.424;2023-04-28T08:28:59;10.80;;;9.77;;
72085;SDS011;64750;52.134;5.424;2023-04-28T08:31:25;12.52;;;11.30;;
72085;SDS011;64750;52.134;5.424;2023-04-28T08:33:52;11.32;;;9.55;;
72085;SDS011;64750;52.134;5.424;2023-04-28T08:36:20;11.07;;;9.73;;
72085;SDS011;64750;52.134;5.424;2023-04-28T08:38:48;11.93;;;10.70;;
72085;SDS011;64750;52.134;5.424;2023-04-28T08:41:15;15.13;;;10.43;;
72085;SDS011;64750;52.134;5.424;2023-04-28T08:43:42;11.80;;;10.20;;
72085;SDS011;64750;52.134;5.424;2023-04-28T08:46:08;13.07;;;10.40;;
72085;SDS011;64750;52.134;5.424;2023-04-28T08:48:39;12.15;;;10.27;;
72085;SDS011;64750;52.134;5.424;2023-04-28T08:51:07;15.63;;;10.73;;
72085;SDS011;64750;52.134;5.424;2023-04-28T08:53:38;13.00;;;11.25;;
72085;SDS011;64750;52.134;5.424;2023-04-28T08:56:25;12.95;;;10.32;;
72085;SDS011;64750;52.134;5.424;2023-04-28T08:58:56;13.90;;;11.20;;
72085;SDS011;64750;52.134;5.424;2023-04-28T09:01:27;15.82;;;11.23;;
72085;SDS011;64750;52.134;5.424;2023-04-28T09:03:53;13.17;;;11.53;;
72085;SDS011;64750;52.134;5.424;2023-04-28T09:06:20;13.77;;;11.95;;
72085;SDS011;64750;52.134;5.424;2023-04-28T09:08:48;12.82;;;11.55;;
72085;SDS011;64750;52.134;5.424;2023-04-28T09:11:14;14.13;;;11.70;;
72085;SDS011;64750;52.134;5.424;2023-04-28T09:13:41;15.15;;;12.40;;
72085;SDS011;64750;52.134;5.424;2023-04-28T09:16:08;15.40;;;12.23;;
72085;SDS011;64750;52.134;5.424;2023-04-28T09:18:34;15.40;;;12.52;;
72085;SDS011;64750;52.134;5.424;2023-04-28T09:21:01;16.92;;;11.93;;
72085;SDS011;64750;52.134;5.424;2023-04-28T09:23:47;14.38;;;12.43;;
72085;SDS011;64750;52.134;5.424;2023-04-28T09:26:14;13.68;;;11.95;;
72085;SDS011;64750;52.134;5.424;2023-04-28T09:28:40;15.73;;;12.10;;
72085;SDS011;64750;52.134;5.424;2023-04-28T09:31:20;13.95;;;12.27;;
72085;SDS011;64750;52.134;5.424;2023-04-28T09:34:00;13.55;;;12.23;;
72085;SDS011;64750;52.134;5.424;2023-04-28T09:36:28;18.35;;;11.88;;
72085;SDS011;64750;52.134;5.424;2023-04-28T09:38:58;17.85;;;12.55;;
72085;SDS011;64750;52.134;5.424;2023-04-28T09:41:35;15.10;;;12.83;;
72085;SDS011;64750;52.134;5.424;2023-04-28T09:44:10;13.27;;;11.68;;
72085;SDS011;64750;52.134;5.424;2023-04-28T09:46:45;15.35;;;12.90;;
72085;SDS011;64750;52.134;5.424;2023-04-28T09:49:12;13.60;;;12.27;;
72085;SDS011;64750;52.134;5.424;2023-04-28T09:51:39;15.30;;;12.02;;
72085;SDS011;64750;52.134;5.424;2023-04-28T09:54:06;15.77;;;12.43;;
72085;SDS011;64750;52.134;5.424;2023-04-28T09:56:33;14.00;;;12.32;;
72085;SDS011;64750;52.134;5.424;2023-04-28T09:59:06;15.82;;;12.02;;
72085;SDS011;64750;52.134;5.424;2023-04-28T10:01:36;13.63;;;12.32;;
72085;SDS011;64750;52.134;5.424;2023-04-28T10:04:06;13.88;;;12.48;;
72085;SDS011;64750;52.134;5.424;2023-04-28T10:06:34;12.83;;;11.50;;
72085;SDS011;64750;52.134;5.424;2023-04-28T10:09:01;13.07;;;11.70;;
72085;SDS011;64750;52.134;5.424;2023-04-28T10:11:28;11.98;;;10.75;;
72085;SDS011;64750;52.134;5.424;2023-04-28T10:13:55;11.50;;;10.45;;
72085;SDS011;64750;52.134;5.424;2023-04-28T10:16:22;12.52;;;11.32;;
72085;SDS011;64750;52.134;5.424;2023-04-28T10:18:49;11.93;;;10.93;;
72085;SDS011;64750;52.134;5.424;2023-04-28T10:21:17;11.63;;;10.63;;
72085;SDS011;64750;52.134;5.424;2023-04-28T10:26:19;10.73;;;9.63;;
72085;SDS011;64750;52.134;5.424;2023-04-28T10:28:48;10.93;;;9.95;;
72085;SDS011;64750;52.134;5.424;2023-04-28T10:31:16;12.03;;;9.40;;
72085;SDS011;64750;52.134;5.424;2023-04-28T10:33:45;10.35;;;9.55;;
72085;SDS011;64750;52.134;5.424;2023-04-28T10:39:18;9.48;;;8.63;;
72085;SDS011;64750;52.134;5.424;2023-04-28T10:41:45;9.85;;;8.75;;
72085;SDS011;64750;52.134;5.424;2023-04-28T11:00:41;8.45;;;7.72;;
72085;SDS011;64750;52.134;5.424;2023-04-28T11:06:24;8.80;;;8.10;;
72085;SDS011;64750;52.134;5.424;2023-04-28T11:08:54;8.90;;;8.13;;
72085;SDS011;64750;52.134;5.424;2023-04-28T11:11:24;7.97;;;7.30;;
72085;SDS011;64750;52.134;5.424;2023-04-28T11:16:50;8.43;;;7.65;;
72085;SDS011;64750;52.134;5.424;2023-04-28T11:19:20;8.50;;;7.70;;
72085;SDS011;64750;52.134;5.424;2023-04-28T11:21:48;8.18;;;7.47;;
72085;SDS011;64750;52.134;5.424;2023-04-28T11:24:15;8.47;;;7.73;;
72085;SDS011;64750;52.134;5.424;2023-04-28T11:26:42;7.50;;;6.90;;
72085;SDS011;64750;52.134;5.424;2023-04-28T11:29:10;7.95;;;7.35;;
72085;SDS011;64750;52.134;5.424;2023-04-28T11:31:37;8.73;;;7.93;;
72085;SDS011;64750;52.134;5.424;2023-04-28T11:34:05;8.32;;;7.45;;
72085;SDS011;64750;52.134;5.424;2023-04-28T11:36:34;9.60;;;8.80;;
72085;SDS011;64750;52.134;5.424;2023-04-28T11:39:06;11.18;;;8.00;;
72085;SDS011;64750;52.134;5.424;2023-04-28T11:41:38;9.05;;;8.15;;
72085;SDS011;64750;52.134;5.424;2023-04-28T11:44:13;9.25;;;7.63;;
72085;SDS011;64750;52.134;5.424;2023-04-28T11:49:12;11.77;;;8.30;;
72085;SDS011;64750;52.134;5.424;2023-04-28T11:51:40;10.07;;;8.32;;
72085;SDS011;64750;52.134;5.424;2023-04-28T11:54:08;9.60;;;7.90;;
72085;SDS011;64750;52.134;5.424;2023-04-28T11:56:37;8.20;;;7.40;;
72085;SDS011;64750;52.134;5.424;2023-04-28T11:59:08;8.25;;;7.15;;
72085;SDS011;64750;52.134;5.424;2023-04-28T12:01:48;9.97;;;7.87;;
72085;SDS011;64750;52.134;5.424;2023-04-28T12:07:06;12.10;;;7.72;;
72085;SDS011;64750;52.134;5.424;2023-04-28T12:09:36;8.02;;;6.95;;
72085;SDS011;64750;52.134;5.424;2023-04-28T12:12:04;9.15;;;7.20;;
72085;SDS011;64750;52.134;5.424;2023-04-28T12:14:52;6.70;;;5.97;;
72085;SDS011;64750;52.134;5.424;2023-04-28T12:19:58;6.90;;;5.82;;
72085;SDS011;64750;52.134;5.424;2023-04-28T12:22:26;6.80;;;5.85;;
72085;SDS011;64750;52.134;5.424;2023-04-28T12:27:28;6.30;;;5.10;;
72085;SDS011;64750;52.134;5.424;2023-04-28T12:29:54;5.55;;;4.85;;
72085;SDS011;64750;52.134;5.424;2023-04-28T12:32:35;5.97;;;5.07;;
72085;SDS011;64750;52.134;5.424;2023-04-28T12:35:07;6.10;;;5.07;;
72085;SDS011;64750;52.134;5.424;2023-04-28T12:37:33;7.18;;;5.40;;
72085;SDS011;64750;52.134;5.424;2023-04-28T12:40:00;7.43;;;5.77;;
72085;SDS011;64750;52.134;5.424;2023-04-28T12:42:29;4.53;;;3.85;;
72085;SDS011;64750;52.134;5.424;2023-04-28T12:44:55;4.40;;;3.38;;
72085;SDS011;64750;52.134;5.424;2023-04-28T12:47:22;4.88;;;3.42;;
72085;SDS011;64750;52.134;5.424;2023-04-28T12:49:49;3.35;;;2.85;;
72085;SDS011;64750;52.134;5.424;2023-04-28T12:52:17;3.13;;;2.83;;
72085;SDS011;64750;52.134;5.424;2023-04-28T12:54:43;5.38;;;2.63;;
72085;SDS011;64750;52.134;5.424;2023-04-28T12:57:12;3.40;;;3.10;;
72085;SDS011;64750;52.134;5.424;2023-04-28T12:59:39;2.97;;;2.50;;
72085;SDS011;64750;52.134;5.424;2023-04-28T13:02:06;3.58;;;2.30;;
72085;SDS011;64750;52.134;5.424;2023-04-28T13:04:33;3.37;;;2.37;;
72085;SDS011;64750;52.134;5.424;2023-04-28T13:07:00;2.10;;;2.00;;
72085;SDS011;64750;52.134;5.424;2023-04-28T13:09:26;2.22;;;2.03;;
72085;SDS011;64750;52.134;5.424;2023-04-28T13:11:53;2.70;;;2.30;;
72085;SDS011;64750;52.134;5.424;2023-04-28T13:14:20;2.95;;;2.10;;
72085;SDS011;64750;52.134;5.424;2023-04-28T13:16:47;2.47;;;2.27;;
72085;SDS011;64750;52.134;5.424;2023-04-28T13:19:14;4.10;;;2.35;;
72085;SDS011;64750;52.134;5.424;2023-04-28T13:21:40;2.47;;;2.28;;
72085;SDS011;64750;52.134;5.424;2023-04-28T13:24:07;3.08;;;2.88;;
72085;SDS011;64750;52.134;5.424;2023-04-28T13:26:34;2.80;;;2.65;;
72085;SDS011;64750;52.134;5.424;2023-04-28T13:29:02;3.37;;;3.17;;
72085;SDS011;64750;52.134;5.424;2023-04-28T13:31:29;3.90;;;3.70;;
72085;SDS011;64750;52.134;5.424;2023-04-28T13:33:56;3.30;;;3.10;;
72085;SDS011;64750;52.134;5.424;2023-04-28T13:36:23;3.00;;;2.70;;
72085;SDS011;64750;52.134;5.424;2023-04-28T13:38:50;3.88;;;3.58;;
72085;SDS011;64750;52.134;5.424;2023-04-28T13:41:17;4.33;;;3.93;;
72085;SDS011;64750;52.134;5.424;2023-04-28T13:43:43;3.88;;;3.67;;
72085;SDS011;64750;52.134;5.424;2023-04-28T13:46:10;3.58;;;3.38;;
72085;SDS011;64750;52.134;5.424;2023-04-28T13:48:38;4.40;;;3.58;;
72085;SDS011;64750;52.134;5.424;2023-04-28T13:51:05;3.90;;;3.70;;
72085;SDS011;64750;52.134;5.424;2023-04-28T13:53:32;3.50;;;3.30;;
72085;SDS011;64750;52.134;5.424;2023-04-28T13:56:00;4.05;;;3.85;;
72085;SDS011;64750;52.134;5.424;2023-04-28T13:58:27;3.42;;;3.22;;
72085;SDS011;64750;52.134;5.424;2023-04-28T14:00:55;3.08;;;2.97;;
72085;SDS011;64750;52.134;5.424;2023-04-28T14:03:22;3.60;;;3.42;;
72085;SDS011;64750;52.134;5.424;2023-04-28T14:05:50;3.63;;;3.43;;
72085;SDS011;64750;52.134;5.424;2023-04-28T14:08:18;3.42;;;3.17;;
72085;SDS011;64750;52.134;5.424;2023-04-28T14:10:46;3.08;;;2.97;;
72085;SDS011;64750;52.134;5.424;2023-04-28T14:13:13;3.63;;;3.42;;
72085;SDS011;64750;52.134;5.424;2023-04-28T14:15:40;3.10;;;3.00;;
72085;SDS011;64750;52.134;5.424;2023-04-28T14:18:23;2.63;;;2.53;;
72085;SDS011;64750;52.134;5.424;2023-04-28T14:20:49;2.40;;;2.30;;
72085;SDS011;64750;52.134;5.424;2023-04-28T14:23:16;2.30;;;2.20;;
72085;SDS011;64750;52.134;5.424;2023-04-28T14:25:43;2.35;;;2.25;;
72085;SDS011;64750;52.134;5.424;2023-04-28T14:28:09;2.42;;;2.33;;
72085;SDS011;64750;52.134;5.424;2023-04-28T14:30:36;2.30;;;2.20;;
72085;SDS011;64750;52.134;5.424;2023-04-28T14:33:03;2.67;;;2.58;;
72085;SDS011;64750;52.134;5.424;2023-04-28T14:35:30;2.90;;;2.70;;
72085;SDS011;64750;52.134;5.424;2023-04-28T14:37:57;2.67;;;2.47;;
72085;SDS011;64750;52.134;5.424;2023-04-28T14:40:24;4.50;;;2.90;;
72085;SDS011;64750;52.134;5.424;2023-04-28T14:42:50;3.77;;;3.47;;
72085;SDS011;64750;52.134;5.424;2023-04-28T14:45:18;4.03;;;3.63;;
72085;SDS011;64750;52.134;5.424;2023-04-28T14:47:44;4.10;;;3.80;;
72085;SDS011;64750;52.134;5.424;2023-04-28T14:50:11;4.43;;;3.85;;
72085;SDS011;64750;52.134;5.424;2023-04-28T14:52:39;5.85;;;4.43;;
72085;SDS011;64750;52.134;5.424;2023-04-28T14:55:06;5.43;;;4.83;;
72085;SDS011;64750;52.134;5.424;2023-04-28T14:57:33;5.95;;;5.03;;
72085;SDS011;64750;52.134;5.424;2023-04-28T15:00:00;7.43;;;5.72;;
72085;SDS011;64750;52.134;5.424;2023-04-28T15:02:28;8.13;;;6.00;;
72085;SDS011;64750;52.134;5.424;2023-04-28T15:04:55;8.68;;;5.80;;
72085;SDS011;64750;52.134;5.424;2023-04-28T15:07:22;8.00;;;5.90;;
72085;SDS011;64750;52.134;5.424;2023-04-28T15:09:51;8.18;;;6.00;;
72085;SDS011;64750;52.134;5.424;2023-04-28T15:12:17;6.82;;;5.65;;
72085;SDS011;64750;52.134;5.424;2023-04-28T15:14:46;6.88;;;5.93;;
72085;SDS011;64750;52.134;5.424;2023-04-28T15:17:13;7.07;;;5.75;;
72085;SDS011;64750;52.134;5.424;2023-04-28T15:19:39;10.07;;;6.77;;
72085;SDS011;64750;52.134;5.424;2023-04-28T15:22:05;8.38;;;5.80;;
72085;SDS011;64750;52.134;5.424;2023-04-28T15:24:32;10.15;;;5.88;;